createdAt,value
2022-08-14T00:00:39.913Z,99715.23
2022-08-14T00:34:36.555Z,99722.02
2022-08-14T00:37:25.954Z,99728.46
2022-08-14T00:53:45.614Z,99717.97
2022-08-14T00:55:03.916Z,99715.23
2022-08-14T00:56:01.855Z,99715.23
2022-08-14T00:57:10.355Z,99722.36
2022-08-14T00:58:27.926Z,99713.33
2022-08-14T00:59:32.806Z,99715.84
2022-08-14T01:00:50.860Z,99715.84
2022-08-14T01:03:52.886Z,99717.59
2022-08-14T01:07:57.114Z,99713.20
2022-08-14T01:21:07.456Z,99716.16
2022-08-14T01:22:13.241Z,99726.75
2022-08-14T01:23:21.722Z,99726.75
2022-08-14T01:24:34.172Z,99714.52
2022-08-14T01:25:37.116Z,99714.52
2022-08-14T01:26:50.693Z,99720.81
2022-08-14T01:27:57.065Z,99717.60
2022-08-14T01:28:59.308Z,99717.38
2022-08-14T01:30:04.723Z,99719.03
2022-08-14T01:31:12.063Z,99719.03
2022-08-14T01:32:22.907Z,99724.84
2022-08-14T01:33:59.307Z,99714.39
2022-08-14T01:35:18.510Z,99725.92
2022-08-14T01:36:04.560Z,99725.92
2022-08-14T01:37:28.571Z,99724.84
2022-08-14T01:38:32.537Z,99719.16
2022-08-14T01:39:42.155Z,99717.84
2022-08-14T01:42:36.264Z,99716.77
2022-08-14T01:44:08.234Z,99724.37
2022-08-14T01:45:41.591Z,99712.60
2022-08-14T01:50:55.633Z,99722.59
2022-08-14T02:10:47.768Z,99720.68
2022-08-14T02:11:54.427Z,99720.68
2022-08-14T02:12:59.424Z,99717.13
2022-08-14T02:14:07.903Z,99723.16
2022-08-14T02:15:12.269Z,99723.16
2022-08-14T02:16:23.481Z,99722.69
2022-08-14T02:17:28.980Z,99722.69
2022-08-14T02:18:34.889Z,99723.16
2022-08-14T02:19:38.979Z,99717.69
2022-08-14T02:20:43.108Z,99717.69
2022-08-14T02:21:50.700Z,99713.91
2022-08-14T02:22:55.231Z,99586.16
2022-08-14T02:24:01.603Z,99716.04
2022-08-14T02:25:06.230Z,99716.04
2022-08-14T02:26:29.345Z,99720.30
2022-08-14T02:30:17.040Z,99721.98
2022-08-14T02:31:43.211Z,99716.73
2022-08-14T02:57:15.378Z,99725.05
2022-08-14T02:58:03.166Z,99727.66
2022-08-14T03:28:33.263Z,99729.67
2022-08-14T03:29:18.975Z,99729.67
2022-08-14T03:30:39.554Z,99724.20
2022-08-14T03:33:02.922Z,99725.78
2022-08-14T03:34:10.116Z,99731.16
2022-08-14T03:35:15.888Z,99730.30
2022-08-14T03:37:38.907Z,99734.50
2022-08-14T03:39:08.445Z,99730.72
2022-08-14T03:39:14.262Z,99730.72
2022-08-14T03:53:02.844Z,99737.18
2022-08-14T03:54:08.964Z,99738.00
2022-08-14T03:55:16.323Z,99738.00
2022-08-14T03:57:42.566Z,99726.03
2022-08-14T03:58:49.608Z,99725.31
2022-08-14T03:59:54.535Z,99725.31
2022-08-14T04:00:59.090Z,99729.73
2022-08-14T04:02:09.589Z,99729.73
2022-08-14T04:03:19.570Z,99731.08
2022-08-14T04:04:21.113Z,99727.27
2022-08-14T04:05:25.678Z,99727.27
2022-08-14T04:08:29.159Z,99724.09
2022-08-14T04:11:08.061Z,99728.13
2022-08-14T04:12:13.517Z,99723.49
2022-08-14T04:13:18.689Z,99719.93
2022-08-14T04:14:23.005Z,99725.75
2022-08-14T04:15:27.721Z,99725.75
2022-08-14T04:16:32.447Z,99717.33
2022-08-14T04:17:38.335Z,99714.60
2022-08-14T04:18:44.853Z,99714.60
2022-08-14T04:19:51.202Z,99712.35
2022-08-14T04:20:55.889Z,99716.52
2022-08-14T04:22:04.142Z,99716.04
2022-08-14T04:24:38.552Z,99716.04
2022-08-14T04:25:53.155Z,99717.83
2022-08-14T04:29:05.362Z,99717.83
2022-08-14T04:29:39.271Z,99719.25
2022-08-14T04:31:24.724Z,99280.22
2022-08-14T04:33:01.722Z,99546.64
2022-08-14T04:34:24.183Z,99708.44
2022-08-14T04:40:12.276Z,99707.26
2022-08-14T04:41:15.495Z,99707.26
2022-08-14T04:42:19.950Z,99672.18
2022-08-14T04:44:51.457Z,99708.88
2022-08-14T04:46:57.064Z,99707.92
2022-08-14T04:50:43.821Z,99701.52
2022-08-14T04:51:28.134Z,99707.08
2022-08-14T04:55:46.548Z,99746.04
2022-08-14T05:10:42.246Z,99718.50
2022-08-14T05:11:41.799Z,99718.50
2022-08-14T05:13:12.497Z,99717.44
2022-08-14T05:15:04.443Z,99721.19
2022-08-14T05:15:22.755Z,99721.19
2022-08-14T05:16:27.695Z,99721.42
2022-08-14T05:17:44.085Z,99721.42
2022-08-14T05:19:19.099Z,99714.40
2022-08-14T05:21:55.270Z,99719.31
2022-08-14T05:21:56.100Z,99723.22
2022-08-14T05:22:15.805Z,99722.19
2022-08-14T05:23:22.351Z,99722.19
2022-08-14T05:24:33.353Z,99720.02
2022-08-14T05:25:35.895Z,99726.02
2022-08-14T05:26:43.367Z,99716.20
2022-08-14T05:28:22.208Z,99716.20
2022-08-14T05:42:34.525Z,99707.12
2022-08-14T05:44:04.800Z,99709.67
2022-08-14T05:46:28.470Z,99703.33
2022-08-14T05:46:57.675Z,99709.67
2022-08-14T05:47:39.195Z,99719.80
2022-08-14T05:48:43.281Z,99712.03
2022-08-14T05:49:47.520Z,99707.64
2022-08-14T05:50:52.467Z,99707.64
2022-08-14T05:51:57.401Z,99717.78
2022-08-14T05:53:03.086Z,99711.97
2022-08-14T05:54:12.714Z,99709.73
2022-08-14T05:55:13.750Z,99712.09
2022-08-14T05:56:18.500Z,99712.09
2022-08-14T05:57:22.489Z,99705.70
2022-08-14T05:58:40.815Z,99713.83
2022-08-14T05:59:39.301Z,99713.83
2022-08-14T06:00:42.711Z,99713.72
2022-08-14T06:01:46.842Z,99713.72
2022-08-14T06:02:52.693Z,99708.09
2022-08-14T06:03:59.083Z,99719.05
2022-08-14T06:05:03.231Z,99719.05
2022-08-14T06:06:09.030Z,99710.80
2022-08-14T06:07:14.632Z,99712.77
2022-08-14T06:08:35.547Z,99712.77
2022-08-14T06:22:45.910Z,99711.24
2022-08-14T06:23:52.058Z,99713.59
2022-08-14T06:24:56.089Z,99713.59
2022-08-14T06:27:44.300Z,99707.62
2022-08-14T06:31:34.405Z,99713.16
2022-08-14T06:32:00.647Z,99713.16
2022-08-14T06:33:19.211Z,99724.42
2022-08-14T06:35:04.595Z,99706.47
2022-08-14T06:35:26.898Z,99706.47
2022-08-14T06:36:31.706Z,99710.63
2022-08-14T06:37:47.806Z,99700.14
2022-08-14T06:39:36.561Z,99721.93
2022-08-14T06:40:03.705Z,99708.70
2022-08-14T06:41:58.623Z,99711.95
2022-08-14T06:42:32.733Z,99713.36
2022-08-14T06:43:30.181Z,99703.20
2022-08-14T06:44:39.012Z,99711.75
2022-08-14T06:45:54.560Z,99700.98
2022-08-14T06:46:54.936Z,99707.05
2022-08-14T06:48:05.962Z,99707.05
2022-08-14T06:49:06.574Z,99707.61
2022-08-14T06:50:16.021Z,99707.61
2022-08-14T06:51:21.379Z,99707.34
2022-08-14T06:52:33.754Z,99712.01
2022-08-14T06:53:33.797Z,99708.47
2022-08-14T06:54:39.438Z,99708.47
2022-08-14T06:55:58.341Z,99707.11
2022-08-14T06:56:57.169Z,99711.60
2022-08-14T06:58:03.313Z,99721.53
2022-08-14T06:59:07.425Z,99721.53
2022-08-14T07:00:22.455Z,99712.73
2022-08-14T07:01:27.740Z,99725.42
2022-08-14T07:02:29.025Z,99723.48
2022-08-14T07:03:34.331Z,99723.48
2022-08-14T07:04:48.788Z,99719.09
2022-08-14T07:06:01.901Z,99719.09
2022-08-14T07:06:59.499Z,99717.70
2022-08-14T07:08:02.425Z,99717.70
2022-08-14T07:09:06.552Z,99724.31
2022-08-14T07:10:13.411Z,99706.65
2022-08-14T07:11:17.823Z,99706.65
2022-08-14T07:12:54.223Z,99727.06
2022-08-14T07:13:30.561Z,99727.06
2022-08-14T07:14:34.943Z,99721.56
2022-08-14T07:15:39.891Z,99734.23
2022-08-14T07:16:47.808Z,99721.27
2022-08-14T07:17:52.538Z,99721.27
2022-08-14T07:18:58.232Z,99729.23
2022-08-14T07:20:04.489Z,99713.84
2022-08-14T07:21:12.751Z,99717.98
2022-08-14T07:22:20.561Z,99734.26
2022-08-14T07:23:25.034Z,99716.33
2022-08-14T07:24:31.512Z,99729.28
2022-08-14T07:25:39.463Z,99729.84
2022-08-14T07:26:58.828Z,99729.28
2022-08-14T07:30:34.269Z,99725.73
2022-08-14T07:31:21.103Z,99725.73
2022-08-14T07:32:34.177Z,99717.16
2022-08-14T07:33:37.074Z,99727.94
2022-08-14T07:34:42.668Z,99722.67
2022-08-14T07:35:57.603Z,99728.19
2022-08-14T07:37:00.815Z,99724.34
2022-08-14T07:38:02.141Z,99713.57
2022-08-14T07:39:12.539Z,99713.57
2022-08-14T07:40:13.952Z,99714.39
2022-08-14T07:41:19.767Z,99722.11
2022-08-14T07:42:23.843Z,99721.55
2022-08-14T07:43:27.980Z,99721.55
2022-08-14T07:44:45.740Z,99712.44
2022-08-14T07:45:38.287Z,99728.48
2022-08-14T07:46:42.381Z,99721.03
2022-08-14T07:47:46.511Z,99721.03
2022-08-14T07:48:51.070Z,99719.91
2022-08-14T07:50:05.607Z,99721.59
2022-08-14T07:51:11.471Z,99714.94
2022-08-14T07:52:15.552Z,99714.95
2022-08-14T07:53:34.196Z,99707.17
2022-08-14T07:54:36.240Z,99726.55
2022-08-14T07:55:38.119Z,99715.52
2022-08-14T07:56:48.946Z,99715.22
2022-08-14T07:57:52.502Z,99715.22
2022-08-14T07:58:58.565Z,99718.83
2022-08-14T08:00:05.929Z,99718.27
2022-08-14T08:01:14.100Z,99711.05
2022-08-14T08:02:28.986Z,99714.07
2022-08-14T08:03:41.460Z,99714.88
2022-08-14T08:04:44.847Z,99714.88
2022-08-14T08:05:52.159Z,99725.92
2022-08-14T08:07:02.352Z,99734.78
2022-08-14T08:08:08.283Z,99714.36
2022-08-14T08:09:21.120Z,99712.67
2022-08-14T08:10:46.261Z,99711.03
2022-08-14T08:11:54.238Z,99718.22
2022-08-14T08:13:22.220Z,99718.22
2022-08-14T08:14:20.348Z,99713.79
2022-08-14T08:15:26.755Z,99710.20
2022-08-14T08:16:51.543Z,99705.20
2022-08-14T08:19:14.367Z,99708.25
2022-08-14T08:20:31.029Z,99707.14
2022-08-14T08:21:13.488Z,99705.20
2022-08-14T08:21:27.011Z,99707.14
2022-08-14T08:22:32.447Z,99708.25
2022-08-14T08:23:40.558Z,99717.06
2022-08-14T08:24:40.868Z,99717.06
2022-08-14T08:25:48.400Z,99710.72
2022-08-14T08:26:53.304Z,99711.59
2022-08-14T08:28:00.394Z,99711.59
2022-08-14T08:29:08.577Z,99712.39
2022-08-14T08:30:15.280Z,99702.73
2022-08-14T08:31:20.298Z,99702.73
2022-08-14T08:32:29.664Z,99704.38
2022-08-14T08:33:37.124Z,99704.38
2022-08-14T08:35:00.790Z,99715.97
2022-08-14T08:36:18.832Z,99715.97
2022-08-14T08:40:06.838Z,99692.25
2022-08-14T08:44:43.873Z,99697.11
2022-08-14T08:45:29.694Z,99699.39
2022-08-14T08:46:45.828Z,99692.20
2022-08-14T08:47:53.711Z,99692.20
2022-08-14T08:50:02.473Z,99693.00
2022-08-14T08:51:14.456Z,99706.27
2022-08-14T08:52:30.967Z,99712.11
2022-08-14T08:53:50.398Z,99690.82
2022-08-14T09:00:42.954Z,99694.95
2022-08-14T09:01:56.472Z,99694.95
2022-08-14T09:03:10.281Z,99690.86
2022-08-14T09:04:19.879Z,99695.53
2022-08-14T09:07:00.070Z,99706.31
2022-08-14T09:07:00.243Z,99681.47
2022-08-14T09:07:00.686Z,99688.34
2022-08-14T09:07:49.652Z,99682.25
2022-08-14T09:10:25.989Z,99697.64
2022-08-14T09:11:38.508Z,99681.56
2022-08-14T09:12:51.577Z,99682.41
2022-08-14T09:13:56.581Z,99704.77
2022-08-14T09:15:11.510Z,99705.06
2022-08-14T09:16:19.176Z,99719.79
2022-08-14T09:17:26.073Z,99704.38
2022-08-14T09:18:28.451Z,99707.95
2022-08-14T09:19:34.022Z,99707.95
2022-08-14T09:20:49.562Z,99701.06
2022-08-14T09:21:48.714Z,99662.48
2022-08-14T09:23:01.952Z,99662.48
2022-08-14T09:24:28.369Z,99698.88
2022-08-14T09:25:15.133Z,99697.81
2022-08-14T09:26:22.487Z,99692.03
2022-08-14T09:27:28.277Z,99692.27
2022-08-14T09:28:32.643Z,99701.64
2022-08-14T09:29:38.309Z,99701.64
2022-08-14T09:30:45.668Z,99691.14
2022-08-14T09:31:54.596Z,99691.14
2022-08-14T09:33:22.612Z,99686.67
2022-08-14T09:34:38.629Z,99691.13
2022-08-14T09:36:02.528Z,99691.13
2022-08-14T09:37:27.215Z,99691.40
2022-08-14T09:38:48.254Z,99668.47
2022-08-14T09:40:20.558Z,99668.47
2022-08-14T09:42:21.890Z,99691.69
2022-08-14T09:42:57.595Z,99691.69
2022-08-14T09:44:22.449Z,99701.06
2022-08-14T09:45:39.958Z,99670.16
2022-08-14T09:46:42.893Z,99670.16
2022-08-14T09:48:08.053Z,99699.70
2022-08-14T09:49:12.136Z,99681.73
2022-08-14T10:04:15.031Z,99678.48
2022-08-14T10:05:13.143Z,99678.48
2022-08-14T10:06:23.122Z,99684.25
2022-08-14T10:07:34.057Z,99672.37
2022-08-14T10:09:21.828Z,99681.20
2022-08-14T10:10:23.438Z,99681.20
2022-08-14T10:11:35.119Z,99679.77
2022-08-14T10:12:45.193Z,99686.17
2022-08-14T10:13:56.035Z,99682.28
2022-08-14T10:15:01.037Z,99688.95
2022-08-14T10:16:06.792Z,99676.29
2022-08-14T10:17:15.499Z,99676.29
2022-08-14T10:18:22.453Z,99673.80
2022-08-14T10:19:29.214Z,99673.80
2022-08-14T10:20:41.066Z,99670.52
2022-08-14T10:23:10.955Z,99670.77
2022-08-14T10:23:22.232Z,99677.92
2022-08-14T10:23:57.906Z,99677.92
2022-08-14T10:25:10.985Z,99672.39
2022-08-14T10:26:22.950Z,99669.88
2022-08-14T10:27:26.539Z,99669.88
2022-08-14T10:29:03.757Z,99693.91
2022-08-14T10:29:54.072Z,99673.19
2022-08-14T10:31:07.364Z,99673.19
2022-08-14T10:32:18.099Z,99671.23
2022-08-14T10:33:31.254Z,99667.88
2022-08-14T10:34:40.964Z,99672.87
2022-08-14T10:50:40.201Z,99678.36
2022-08-14T10:51:46.162Z,99680.87
2022-08-14T10:53:08.962Z,99687.47
2022-08-14T10:54:35.754Z,99697.15
2022-08-14T10:58:19.600Z,99661.23
2022-08-14T10:59:30.935Z,99675.06
2022-08-14T11:00:49.683Z,99675.06
2022-08-14T11:03:57.226Z,99670.61
2022-08-14T11:04:32.453Z,99667.73
2022-08-14T11:06:01.222Z,99670.23
2022-08-14T11:07:09.117Z,99670.23
2022-08-14T11:09:35.453Z,99684.84
2022-08-14T11:10:54.177Z,99690.45
2022-08-14T11:12:34.551Z,99695.97
2022-08-14T11:13:13.086Z,99664.73
2022-08-14T11:14:20.765Z,99677.73
2022-08-14T11:21:10.589Z,99663.50
2022-08-14T11:22:52.105Z,99677.13
2022-08-14T11:23:41.112Z,99681.52
2022-08-14T11:24:50.972Z,99664.34
2022-08-14T11:25:53.179Z,99669.30
2022-08-14T11:26:57.003Z,99669.58
2022-08-14T11:28:03.595Z,99672.38
2022-08-14T11:29:11.151Z,99672.38
2022-08-14T11:30:51.188Z,99675.95
2022-08-14T11:31:24.862Z,99670.09
2022-08-14T11:32:31.024Z,99678.69
2022-08-14T11:33:46.196Z,99675.93
2022-08-14T11:34:54.257Z,99670.40
2022-08-14T11:35:59.921Z,99682.03
2022-08-14T11:37:23.557Z,99674.34
2022-08-14T11:38:18.754Z,99674.34
2022-08-14T11:39:34.508Z,99665.47
2022-08-14T11:40:32.858Z,99670.45
2022-08-14T11:41:43.111Z,99681.52
2022-08-14T11:42:58.520Z,99681.52
2022-08-14T11:43:58.055Z,99674.91
2022-08-14T11:45:01.908Z,99682.48
2022-08-14T11:46:17.731Z,99682.48
2022-08-14T11:47:25.101Z,99685.80
2022-08-14T11:49:01.570Z,99680.00
2022-08-14T11:49:44.233Z,99677.22
2022-08-14T11:51:02.918Z,99676.15
2022-08-14T11:52:00.348Z,99683.35
2022-08-14T11:53:08.929Z,99680.58
2022-08-14T11:54:43.497Z,99684.45
2022-08-14T11:55:55.862Z,99706.56
2022-08-14T11:58:35.173Z,99689.44
2022-08-14T11:59:44.300Z,99692.77
2022-08-14T12:00:49.521Z,99692.77
2022-08-14T12:03:03.135Z,99694.45
2022-08-14T12:03:46.462Z,99700.55
2022-08-14T12:10:26.605Z,99686.75
2022-08-14T12:11:19.641Z,99696.75
2022-08-14T12:12:36.234Z,99694.55
2022-08-14T12:13:32.693Z,99692.88
2022-08-14T12:14:56.086Z,99699.52
2022-08-14T12:16:20.612Z,99627.23
2022-08-14T12:17:24.196Z,99689.56
2022-08-14T12:18:38.729Z,99689.56
2022-08-14T12:19:58.229Z,99693.41
2022-08-14T12:22:52.317Z,99693.41
2022-08-14T12:23:05.393Z,99688.45
2022-08-14T12:23:47.822Z,99693.41
2022-08-14T12:24:59.848Z,99691.77
2022-08-14T12:26:31.929Z,99691.77
2022-08-14T12:27:12.951Z,99690.38
2022-08-14T12:28:27.060Z,99693.41
2022-08-14T12:29:24.660Z,99693.41
2022-08-14T12:30:43.452Z,99700.59
2022-08-14T12:31:51.570Z,99705.30
2022-08-14T12:32:54.529Z,99705.30
2022-08-14T12:34:03.356Z,99691.47
2022-08-14T12:35:10.695Z,99691.47
2022-08-14T12:36:25.918Z,99223.25
2022-08-14T12:37:31.556Z,99223.25
2022-08-14T12:38:45.065Z,99692.31
2022-08-14T12:40:56.086Z,99692.31
2022-08-14T12:41:37.735Z,99690.67
2022-08-14T12:43:56.265Z,99692.31
2022-08-14T12:45:17.377Z,99687.63
2022-08-14T12:46:22.456Z,99687.63
2022-08-14T12:47:17.426Z,99686.80
2022-08-14T12:48:32.235Z,99681.58
2022-08-14T12:49:33.465Z,99689.83
2022-08-14T12:50:42.296Z,99689.83
2022-08-14T12:51:58.548Z,99685.42
2022-08-14T12:53:14.280Z,99684.86
2022-08-14T12:54:19.356Z,99693.98
2022-08-14T12:55:23.032Z,99696.73
2022-08-14T12:56:33.896Z,99716.27
2022-08-14T12:57:42.231Z,99716.27
2022-08-14T12:58:52.879Z,99707.75
2022-08-14T12:59:59.449Z,99696.16
2022-08-14T13:01:17.055Z,99718.21
2022-08-14T13:02:26.147Z,99704.14
2022-08-14T13:03:30.632Z,99698.33
2022-08-14T13:04:37.858Z,99698.33
2022-08-14T13:05:45.120Z,99701.56
2022-08-14T13:06:51.852Z,99688.36
2022-08-14T13:07:59.102Z,99692.75
2022-08-14T13:09:11.880Z,99692.75
2022-08-14T13:10:47.158Z,99683.38
2022-08-14T13:11:26.624Z,99683.38
2022-08-14T13:12:43.120Z,99690.27
2022-08-14T13:13:44.510Z,99689.43
2022-08-14T13:14:51.981Z,99695.22
2022-08-14T13:15:57.573Z,99684.45
2022-08-14T13:17:01.996Z,99689.43
2022-08-14T13:18:09.999Z,99678.92
2022-08-14T13:19:16.356Z,99678.92
2022-08-14T13:20:26.826Z,99680.05
2022-08-14T13:22:05.622Z,99680.05
2022-08-14T13:22:44.392Z,99676.19
2022-08-14T13:23:48.881Z,99673.45
2022-08-14T13:24:55.040Z,99674.56
2022-08-14T13:26:00.245Z,99674.56
2022-08-14T13:27:05.952Z,99674.02
2022-08-14T13:28:12.880Z,99675.13
2022-08-14T13:29:21.021Z,99675.13
2022-08-14T13:30:27.718Z,99664.65
2022-08-14T13:31:35.313Z,99664.65
2022-08-14T13:32:59.451Z,99676.72
2022-08-14T13:34:08.330Z,99676.72
2022-08-14T13:35:26.723Z,99686.34
2022-08-14T13:36:54.558Z,99671.73
2022-08-14T13:37:37.435Z,99674.77
2022-08-14T13:38:45.586Z,99668.44
2022-08-14T13:39:56.641Z,99660.71
2022-08-14T13:40:59.497Z,99662.37
2022-08-14T13:42:08.051Z,99662.37
2022-08-14T13:43:14.371Z,99653.56
2022-08-14T13:44:24.052Z,99650.27
2022-08-14T13:45:33.902Z,99650.27
2022-08-14T13:46:33.343Z,99657.43
2022-08-14T13:47:41.272Z,99654.67
2022-08-14T13:48:45.575Z,99653.05
2022-08-14T13:49:57.445Z,99647.25
2022-08-14T13:51:01.735Z,99647.25
2022-08-14T13:52:48.762Z,99657.19
2022-08-14T13:53:16.825Z,99646.18
2022-08-14T13:54:23.953Z,99644.22
2022-08-14T13:55:32.304Z,99637.61
2022-08-14T13:56:39.594Z,99642.05
2022-08-14T13:57:49.479Z,99642.05
2022-08-14T13:59:01.468Z,99639.84
2022-08-14T14:01:15.561Z,99636.79
2022-08-14T14:01:21.364Z,99636.79
2022-08-14T14:02:31.601Z,99631.28
2022-08-14T14:03:38.308Z,99640.94
2022-08-14T14:05:01.989Z,99619.46
2022-08-14T14:05:58.049Z,99632.12
2022-08-14T14:07:08.314Z,99632.12
2022-08-14T14:08:46.723Z,99629.93
2022-08-14T14:09:51.027Z,99629.38
2022-08-14T14:10:49.088Z,99626.61
2022-08-14T14:12:05.233Z,99626.61
2022-08-14T14:13:21.412Z,99629.66
2022-08-14T14:14:44.567Z,99639.31
2022-08-14T14:15:33.932Z,99624.15
2022-08-14T14:16:33.292Z,99624.67
2022-08-14T14:17:54.733Z,99627.72
2022-08-14T14:18:54.055Z,99627.72
2022-08-14T14:20:59.423Z,99626.07
2022-08-14T14:21:20.176Z,99626.07
2022-08-14T14:22:35.836Z,99623.84
2022-08-14T14:23:37.659Z,99631.58
2022-08-14T14:24:44.264Z,99632.94
2022-08-14T14:25:57.034Z,99623.30
2022-08-14T14:27:00.361Z,99626.59
2022-08-14T14:28:06.253Z,99626.59
2022-08-14T14:29:13.680Z,99623.03
2022-08-14T14:30:52.201Z,99618.36
2022-08-14T14:31:35.406Z,99622.75
2022-08-14T14:33:01.876Z,99609.55
2022-08-14T14:33:51.550Z,99610.65
2022-08-14T14:34:57.892Z,99611.20
2022-08-14T14:36:05.704Z,99611.20
2022-08-14T14:37:12.136Z,99625.80
2022-08-14T14:38:17.369Z,99613.11
2022-08-14T14:39:25.939Z,99629.64
2022-08-14T14:40:53.787Z,99606.78
2022-08-14T14:41:43.548Z,99603.21
2022-08-14T14:42:57.122Z,99619.19
2022-08-14T14:44:17.012Z,99619.19
2022-08-14T14:45:24.907Z,99612.02
2022-08-14T14:46:36.279Z,99615.34
2022-08-14T14:47:38.573Z,99615.34
2022-08-14T14:48:53.838Z,99611.75
2022-08-14T14:49:55.335Z,99611.75
2022-08-14T14:50:58.477Z,99614.51
2022-08-14T14:52:04.564Z,99606.78
2022-08-14T14:53:13.136Z,99607.31
2022-08-14T14:54:18.512Z,99607.31
2022-08-14T14:55:25.569Z,99615.31
2022-08-14T14:56:50.110Z,99608.14
2022-08-14T14:57:37.029Z,99610.65
2022-08-14T14:58:46.042Z,99614.50
2022-08-14T14:59:52.054Z,99614.50
2022-08-14T15:08:55.960Z,99607.85
2022-08-14T15:09:58.352Z,99611.95
2022-08-14T15:11:02.833Z,99607.55
2022-08-14T15:12:27.965Z,99607.55
2022-08-14T15:13:24.948Z,99601.23
2022-08-14T15:14:56.544Z,99600.09
2022-08-14T15:15:37.442Z,99600.09
2022-08-14T15:16:41.385Z,99602.84
2022-08-14T15:17:45.679Z,99593.50
2022-08-14T15:20:30.655Z,99608.38
2022-08-14T15:21:33.061Z,99609.45
2022-08-14T15:22:43.564Z,99603.88
2022-08-14T15:24:20.288Z,99602.84
2022-08-14T15:26:03.719Z,99598.44
2022-08-14T15:26:10.749Z,99598.44
2022-08-14T15:28:38.874Z,99598.98
2022-08-14T15:30:02.398Z,99598.98
2022-08-14T15:31:08.122Z,99608.58
2022-08-14T15:32:13.941Z,99602.25
2022-08-14T15:33:22.716Z,99597.55
2022-08-14T15:34:43.538Z,99600.04
2022-08-14T15:35:34.409Z,99594.58
2022-08-14T15:36:42.006Z,99598.09
2022-08-14T15:37:45.867Z,99598.09
2022-08-14T15:38:54.188Z,99602.21
2022-08-14T15:39:58.359Z,99601.09
2022-08-14T15:41:08.344Z,99603.84
2022-08-14T15:43:08.949Z,99603.84
2022-08-14T15:45:01.257Z,99612.87
2022-08-14T15:45:29.557Z,99597.19
2022-08-14T15:46:07.852Z,99612.87
2022-08-14T15:47:16.680Z,99611.45
2022-08-14T15:48:23.315Z,99610.66
2022-08-14T15:49:34.452Z,99604.31
2022-08-14T15:50:36.674Z,99604.31
2022-08-14T15:51:44.125Z,99607.66
2022-08-14T15:56:42.148Z,99600.99
2022-08-14T15:57:32.079Z,99600.99
2022-08-14T15:58:37.294Z,99611.41
2022-08-14T15:59:43.484Z,99605.90
2022-08-14T16:00:50.167Z,99597.33
2022-08-14T16:01:55.681Z,99597.33
2022-08-14T16:03:01.819Z,99599.00
2022-08-14T16:04:07.420Z,99602.84
2022-08-14T16:05:11.537Z,99598.16
2022-08-14T16:06:20.006Z,99598.16
2022-08-14T16:07:27.274Z,99599.52
2022-08-14T16:08:37.361Z,99599.52
2022-08-14T16:09:37.922Z,99602.02
2022-08-14T16:10:45.934Z,99603.66
2022-08-14T16:11:53.642Z,99603.66
2022-08-14T16:12:58.861Z,99611.91
2022-08-14T16:14:09.901Z,99611.91
2022-08-14T16:15:14.763Z,99612.73
2022-08-14T16:16:47.702Z,99612.73
2022-08-14T16:17:43.976Z,99601.34
2022-08-14T16:18:45.954Z,99601.34
2022-08-14T16:19:56.011Z,99613.20
2022-08-14T16:21:02.446Z,99616.75
2022-08-14T16:23:10.553Z,99602.42
2022-08-14T16:23:19.030Z,99617.85
2022-08-14T16:24:28.108Z,99617.85
2022-08-14T16:25:36.206Z,99612.85
2022-08-14T16:26:39.123Z,99618.06
2022-08-14T16:27:45.897Z,99618.06
2022-08-14T16:28:52.325Z,99615.06
2022-08-14T16:30:05.029Z,99604.59
2022-08-14T16:31:09.914Z,99604.59
2022-08-14T16:32:32.705Z,99611.74
2022-08-14T16:33:57.092Z,99622.45
2022-08-14T16:34:44.205Z,99610.60
2022-08-14T16:35:42.172Z,99610.60
2022-08-14T16:36:41.475Z,99621.31
2022-08-14T16:37:47.673Z,99628.70
2022-08-14T16:38:55.966Z,99632.02
2022-08-14T16:40:04.633Z,99632.02
2022-08-14T16:41:10.467Z,99615.20
2022-08-14T16:43:03.264Z,99621.72
2022-08-14T16:43:21.077Z,99621.44
2022-08-14T16:44:33.685Z,99619.80
2022-08-14T16:45:43.535Z,99619.80
2022-08-14T16:46:43.862Z,99623.03
2022-08-14T16:47:50.650Z,99627.70
2022-08-14T16:48:57.732Z,99627.70
2022-08-14T16:50:04.137Z,99625.77
2022-08-14T16:51:06.877Z,99634.56
2022-08-14T16:52:26.008Z,99629.59
2022-08-14T16:53:23.872Z,99629.00
2022-08-14T16:54:34.890Z,99626.25
2022-08-14T16:55:53.157Z,99626.25
2022-08-14T16:56:40.743Z,99626.80
2022-08-14T16:57:58.926Z,99636.34
2022-08-14T16:59:16.101Z,99618.13
2022-08-14T17:00:32.743Z,99625.74
2022-08-14T17:01:40.558Z,99619.95
2022-08-14T17:02:44.194Z,99628.19
2022-08-14T17:03:54.453Z,99622.34
2022-08-14T17:05:16.986Z,99630.34
2022-08-14T17:06:42.972Z,99629.19
2022-08-14T17:12:34.882Z,99619.59
2022-08-14T17:13:59.895Z,99623.38
2022-08-14T17:15:01.913Z,99623.38
2022-08-14T17:16:11.925Z,99629.11
2022-08-14T17:17:19.843Z,99627.13
2022-08-14T17:18:41.773Z,99613.16
2022-08-14T17:19:45.799Z,99613.16
2022-08-14T17:21:02.152Z,99624.08
2022-08-14T17:22:06.730Z,99623.98
2022-08-14T17:23:10.757Z,99612.80
2022-08-14T17:24:51.540Z,99621.23
2022-08-14T17:25:23.587Z,99617.91
2022-08-14T17:26:47.178Z,99612.94
2022-08-14T17:28:52.555Z,99616.27
2022-08-14T17:29:23.655Z,99616.27
2022-08-14T17:30:37.875Z,99617.55
2022-08-14T17:31:58.066Z,99619.98
2022-08-14T17:32:56.260Z,99619.98
2022-08-14T17:33:53.649Z,99615.25
2022-08-14T17:35:01.845Z,99622.34
2022-08-14T17:36:20.779Z,99622.34
2022-08-14T17:37:26.096Z,99621.48
2022-08-14T17:38:33.692Z,99622.28
2022-08-14T17:39:40.173Z,99618.37
2022-08-14T17:40:43.335Z,99619.63
2022-08-14T17:42:01.807Z,99615.31
2022-08-14T17:43:01.874Z,99625.39
2022-08-14T17:44:33.834Z,99624.88
2022-08-14T17:45:41.057Z,99618.73
2022-08-14T17:46:43.940Z,99618.73
2022-08-14T17:47:49.551Z,99622.50
2022-08-14T17:49:13.873Z,99621.91
2022-08-14T17:50:58.417Z,99559.34
2022-08-14T17:51:13.317Z,99630.06
2022-08-14T17:52:36.473Z,99625.44
2022-08-14T17:53:24.599Z,99617.77
2022-08-14T17:54:35.029Z,99623.95
2022-08-14T17:56:00.911Z,99623.95
2022-08-14T17:56:42.706Z,99620.12
2022-08-14T17:57:48.736Z,99620.12
2022-08-14T17:58:55.236Z,99619.53
2022-08-14T18:00:01.247Z,99623.12
2022-08-14T18:01:08.489Z,99623.12
2022-08-14T18:02:16.447Z,99617.30
2022-08-14T18:03:50.891Z,99618.98
2022-08-14T18:04:33.232Z,99618.98
2022-08-14T18:06:07.132Z,99615.03
2022-08-14T18:06:58.564Z,99615.03
2022-08-14T18:08:32.501Z,99619.10
2022-08-14T18:09:00.321Z,99619.10
2022-08-14T18:10:51.829Z,99618.39
2022-08-14T18:11:15.199Z,99618.39
2022-08-14T18:12:31.978Z,99622.11
2022-08-14T18:13:50.121Z,99621.26
2022-08-14T18:14:48.975Z,99621.26
2022-08-14T18:15:44.689Z,99616.12
2022-08-14T18:16:53.305Z,99624.27
2022-08-14T18:17:58.267Z,99624.27
2022-08-14T18:19:04.370Z,99622.67
2022-08-14T18:21:24.460Z,99611.97
2022-08-14T18:21:39.690Z,99618.78
2022-08-14T18:22:32.125Z,99618.78
2022-08-14T18:23:41.958Z,99619.84
2022-08-14T18:24:57.355Z,99619.84
2022-08-14T18:26:06.530Z,99621.17
2022-08-14T18:27:02.275Z,99612.95
2022-08-14T18:30:31.735Z,99622.78
2022-08-14T18:36:47.684Z,99609.50
2022-08-14T18:37:18.053Z,99623.44
2022-08-14T18:38:26.074Z,99614.16
2022-08-14T18:40:01.676Z,99616.62
2022-08-14T18:40:44.119Z,99616.62
2022-08-14T18:41:50.583Z,99623.94
2022-08-14T18:43:02.275Z,99624.44
2022-08-14T18:44:05.187Z,99624.44
2022-08-14T18:45:15.531Z,99616.45
2022-08-14T18:47:00.105Z,99616.45